Flight Briefing for CPX319

Departure Arrival
Washington Dulles International Airport (KIAD)
Click to view FAA NOTAMS
Seattle-Tacoma International Airport (KSEA)
Click to view FAA NOTAMS
Departure Time Arrival Time
N/A N/A
Aircraft Distance
B767-300BDSF 2001nm
Departure METAR Arrival METAR
KIAD 151952Z 21015G22KT 10SM FEW050 BKN130 OVC220 17/03 A2964 RMK AO2 PK WND 22029/1905 SLP035 T01720033 KSEA 152031Z 19011KT 10SM SCT020 BKN036 BKN250 06/03 A2964 RMK AO2 T00610028
Suggested Route
MCRAY2 MCRAY J518 IHD LEJOY J518 DJB J34 HASTE KP87M CESNA ISN MLP GLASR1


View recent IFR Routes data
Notes



Charts and Procedures

Charts for KIAD
No chart available
Charts for KSEA
No chart available

Ventusky Weather